sensor_id;sensor_type;location;lat;lon;timestamp;pressure;altitude;pressure_sealevel;temperature;humidity
56600;BME280;51832;48.152;11.530;2023-05-24T00:03:22;95628.28;;;18.59;65.35
56600;BME280;51832;48.152;11.530;2023-05-24T00:08:23;95624.28;;;18.81;63.39
56600;BME280;51832;48.152;11.530;2023-05-24T00:13:23;95626.66;;;18.88;64.57
56600;BME280;51832;48.152;11.530;2023-05-24T00:18:24;95617.84;;;18.98;64.37
56600;BME280;51832;48.152;11.530;2023-05-24T00:23:25;95616.25;;;18.87;63.65
56600;BME280;51832;48.152;11.530;2023-05-24T00:28:26;95609.59;;;18.94;62.96
56600;BME280;51832;48.152;11.530;2023-05-24T00:33:27;95610.66;;;18.47;65.01
56600;BME280;51832;48.152;11.530;2023-05-24T00:38:27;95614.13;;;18.53;65.66
56600;BME280;51832;48.152;11.530;2023-05-24T00:43:28;95613.34;;;18.42;66.77
56600;BME280;51832;48.152;11.530;2023-05-24T00:48:29;95609.38;;;18.70;64.85
56600;BME280;51832;48.152;11.530;2023-05-24T00:53:30;95609.34;;;18.55;65.08
56600;BME280;51832;48.152;11.530;2023-05-24T00:58:31;95610.16;;;18.30;65.91
56600;BME280;51832;48.152;11.530;2023-05-24T01:03:31;95604.03;;;18.60;64.02
56600;BME280;51832;48.152;11.530;2023-05-24T01:13:52;95594.16;;;18.56;64.95
56600;BME280;51832;48.152;11.530;2023-05-24T01:18:56;95593.38;;;18.60;63.98
56600;BME280;51832;48.152;11.530;2023-05-24T01:29:05;95589.38;;;18.37;65.75
56600;BME280;51832;48.152;11.530;2023-05-24T01:34:06;95589.91;;;18.44;65.65
56600;BME280;51832;48.152;11.530;2023-05-24T01:39:07;95588.81;;;18.51;65.91
56600;BME280;51832;48.152;11.530;2023-05-24T01:44:28;95591.75;;;18.24;65.04
56600;BME280;51832;48.152;11.530;2023-05-24T01:49:36;95588.53;;;18.06;66.41
56600;BME280;51832;48.152;11.530;2023-05-24T01:54:42;95600.81;;;18.13;66.66
56600;BME280;51832;48.152;11.530;2023-05-24T01:59:44;95595.75;;;18.01;66.82
56600;BME280;51832;48.152;11.530;2023-05-24T02:04:45;95603.50;;;18.28;66.67
56600;BME280;51832;48.152;11.530;2023-05-24T02:09:46;95596.28;;;18.54;66.07
56600;BME280;51832;48.152;11.530;2023-05-24T02:14:46;95597.63;;;18.36;65.09
56600;BME280;51832;48.152;11.530;2023-05-24T02:19:50;95592.56;;;18.29;66.60
56600;BME280;51832;48.152;11.530;2023-05-24T02:24:50;95594.69;;;18.32;66.02
56600;BME280;51832;48.152;11.530;2023-05-24T02:29:50;95599.47;;;18.00;67.15
56600;BME280;51832;48.152;11.530;2023-05-24T02:34:52;95597.31;;;17.92;66.44
56600;BME280;51832;48.152;11.530;2023-05-24T02:39:52;95581.63;;;17.90;66.72
56600;BME280;51832;48.152;11.530;2023-05-24T02:44:52;95592.25;;;17.95;67.55
56600;BME280;51832;48.152;11.530;2023-05-24T02:49:53;95582.69;;;17.99;67.93
56600;BME280;51832;48.152;11.530;2023-05-24T02:54:54;95581.53;;;19.12;69.83
56600;BME280;51832;48.152;11.530;2023-05-24T02:59:55;95577.31;;;18.91;64.13
56600;BME280;51832;48.152;11.530;2023-05-24T03:04:55;95575.53;;;18.71;64.47
56600;BME280;51832;48.152;11.530;2023-05-24T03:09:56;95587.75;;;18.57;65.40
56600;BME280;51832;48.152;11.530;2023-05-24T03:14:56;95580.56;;;18.32;66.30
56600;BME280;51832;48.152;11.530;2023-05-24T03:19:57;95578.69;;;18.78;66.48
56600;BME280;51832;48.152;11.530;2023-05-24T03:24:57;95582.97;;;18.43;66.63
56600;BME280;51832;48.152;11.530;2023-05-24T03:29:58;95591.75;;;18.59;64.79
56600;BME280;51832;48.152;11.530;2023-05-24T03:34:58;95588.84;;;18.25;65.38
56600;BME280;51832;48.152;11.530;2023-05-24T03:40:02;95590.41;;;18.06;67.98
56600;BME280;51832;48.152;11.530;2023-05-24T03:45:04;95598.69;;;18.35;66.15
56600;BME280;51832;48.152;11.530;2023-05-24T03:50:05;95596.28;;;18.18;66.44
56600;BME280;51832;48.152;11.530;2023-05-24T03:55:05;95607.22;;;18.17;67.20
56600;BME280;51832;48.152;11.530;2023-05-24T04:00:06;95606.38;;;18.06;67.10
56600;BME280;51832;48.152;11.530;2023-05-24T04:05:09;95607.19;;;18.06;67.67
56600;BME280;51832;48.152;11.530;2023-05-24T04:10:10;95603.22;;;18.39;66.33
56600;BME280;51832;48.152;11.530;2023-05-24T04:15:12;95609.34;;;18.40;68.41
56600;BME280;51832;48.152;11.530;2023-05-24T04:20:15;95618.41;;;18.39;67.38
56600;BME280;51832;48.152;11.530;2023-05-24T04:25:16;95610.69;;;18.27;66.83
56600;BME280;51832;48.152;11.530;2023-05-24T04:30:16;95621.84;;;18.24;65.89
56600;BME280;51832;48.152;11.530;2023-05-24T04:35:17;95613.59;;;18.10;64.57
56600;BME280;51832;48.152;11.530;2023-05-24T04:40:17;95610.41;;;18.29;63.21
56600;BME280;51832;48.152;11.530;2023-05-24T04:45:21;95621.03;;;18.19;64.85
56600;BME280;51832;48.152;11.530;2023-05-24T04:50:22;95622.50;;;17.59;63.92
56600;BME280;51832;48.152;11.530;2023-05-24T04:55:23;95631.47;;;17.42;66.97
56600;BME280;51832;48.152;11.530;2023-05-24T05:00:23;95618.09;;;17.27;63.91
56600;BME280;51832;48.152;11.530;2023-05-24T05:05:23;95618.19;;;16.95;64.80
56600;BME280;51832;48.152;11.530;2023-05-24T05:10:24;95627.94;;;17.22;64.36
56600;BME280;51832;48.152;11.530;2023-05-24T05:15:25;95630.94;;;17.35;63.39
56600;BME280;51832;48.152;11.530;2023-05-24T05:20:26;95622.50;;;17.59;62.01
56600;BME280;51832;48.152;11.530;2023-05-24T05:25:26;95638.41;;;17.44;63.51
56600;BME280;51832;48.152;11.530;2023-05-24T05:30:27;95628.19;;;17.20;63.39
56600;BME280;51832;48.152;11.530;2023-05-24T05:35:28;95625.91;;;17.44;62.88
56600;BME280;51832;48.152;11.530;2023-05-24T05:40:28;95629.03;;;17.36;64.24
56600;BME280;51832;48.152;11.530;2023-05-24T05:45:28;95622.53;;;17.12;64.27
56600;BME280;51832;48.152;11.530;2023-05-24T05:50:29;95617.88;;;17.34;64.65
56600;BME280;51832;48.152;11.530;2023-05-24T05:55:29;95616.63;;;17.57;63.05
56600;BME280;51832;48.152;11.530;2023-05-24T06:00:29;95614.88;;;17.83;62.03
56600;BME280;51832;48.152;11.530;2023-05-24T06:05:30;95609.03;;;17.96;61.67
56600;BME280;51832;48.152;11.530;2023-05-24T06:10:30;95603.44;;;17.97;62.13
56600;BME280;51832;48.152;11.530;2023-05-24T06:15:30;95605.63;;;18.31;60.99
56600;BME280;51832;48.152;11.530;2023-05-24T06:20:32;95610.97;;;18.31;61.02
56600;BME280;51832;48.152;11.530;2023-05-24T06:25:32;95610.97;;;18.31;61.34
56600;BME280;51832;48.152;11.530;2023-05-24T06:30:33;95599.75;;;18.39;60.73
56600;BME280;51832;48.152;11.530;2023-05-24T06:35:33;95616.81;;;18.28;61.61
56600;BME280;51832;48.152;11.530;2023-05-24T06:40:34;95607.22;;;18.37;60.27
56600;BME280;51832;48.152;11.530;2023-05-24T06:45:35;95612.25;;;18.48;59.47
56600;BME280;51832;48.152;11.530;2023-05-24T06:50:36;95618.66;;;18.78;58.78
56600;BME280;51832;48.152;11.530;2023-05-24T06:55:36;95623.72;;;18.24;60.56
56600;BME280;51832;48.152;11.530;2023-05-24T07:00:37;95626.66;;;18.17;59.91
56600;BME280;51832;48.152;11.530;2023-05-24T07:05:37;95622.66;;;18.55;59.31
56600;BME280;51832;48.152;11.530;2023-05-24T07:10:38;95629.59;;;18.51;59.62
56600;BME280;51832;48.152;11.530;2023-05-24T07:15:41;95635.47;;;18.43;59.96
56600;BME280;51832;48.152;11.530;2023-05-24T07:20:42;95639.72;;;18.59;58.26
56600;BME280;51832;48.152;11.530;2023-05-24T07:25:42;95639.47;;;18.76;59.20
56600;BME280;51832;48.152;11.530;2023-05-24T07:30:43;95636.25;;;18.33;60.42
56600;BME280;51832;48.152;11.530;2023-05-24T07:35:43;95634.13;;;18.30;59.57
56600;BME280;51832;48.152;11.530;2023-05-24T07:40:50;95636.50;;;18.22;61.02
56600;BME280;51832;48.152;11.530;2023-05-24T07:45:52;95637.06;;;18.29;61.14
56600;BME280;51832;48.152;11.530;2023-05-24T07:50:53;95634.13;;;18.25;60.25
56600;BME280;51832;48.152;11.530;2023-05-24T07:55:54;95638.09;;;18.48;58.87
56600;BME280;51832;48.152;11.530;2023-05-24T08:00:55;95636.00;;;18.75;57.30
56600;BME280;51832;48.152;11.530;2023-05-24T08:05:55;95647.19;;;18.72;58.30
56600;BME280;51832;48.152;11.530;2023-05-24T08:10:56;95645.09;;;18.69;57.97
56600;BME280;51832;48.152;11.530;2023-05-24T08:15:56;95637.31;;;18.93;56.92
56600;BME280;51832;48.152;11.530;2023-05-24T08:20:57;95648.78;;;18.99;55.90
56600;BME280;51832;48.152;11.530;2023-05-24T08:25:58;95656.50;;;18.90;56.77
56600;BME280;51832;48.152;11.530;2023-05-24T08:30:58;95655.69;;;18.29;57.90
56600;BME280;51832;48.152;11.530;2023-05-24T08:35:59;95658.03;;;18.00;58.39
56600;BME280;51832;48.152;11.530;2023-05-24T08:41:02;95655.16;;;18.17;58.12
56600;BME280;51832;48.152;11.530;2023-05-24T08:46:05;95662.59;;;18.15;57.55
56600;BME280;51832;48.152;11.530;2023-05-24T08:51:06;95658.78;;;17.80;58.67
56600;BME280;51832;48.152;11.530;2023-05-24T08:56:07;95669.19;;;17.92;59.37
56600;BME280;51832;48.152;11.530;2023-05-24T09:01:12;95668.44;;;18.01;58.86
56600;BME280;51832;48.152;11.530;2023-05-24T09:06:16;95666.88;;;18.26;57.50
56600;BME280;51832;48.152;11.530;2023-05-24T09:11:18;95663.91;;;18.02;58.90
56600;BME280;51832;48.152;11.530;2023-05-24T09:16:18;95674.78;;;17.95;58.44
56600;BME280;51832;48.152;11.530;2023-05-24T09:21:19;95670.81;;;17.98;58.58
56600;BME280;51832;48.152;11.530;2023-05-24T09:26:19;95665.75;;;18.06;58.06
56600;BME280;51832;48.152;11.530;2023-05-24T09:31:31;95664.97;;;18.01;58.36
56600;BME280;51832;48.152;11.530;2023-05-24T09:36:31;95676.41;;;18.01;57.99
56600;BME280;51832;48.152;11.530;2023-05-24T09:41:36;95675.16;;;18.29;57.51
56600;BME280;51832;48.152;11.530;2023-05-24T09:46:37;95668.41;;;17.96;58.31
56600;BME280;51832;48.152;11.530;2023-05-24T09:51:37;95674.06;;;18.15;56.78
56600;BME280;51832;48.152;11.530;2023-05-24T09:56:38;95668.97;;;18.19;56.47
56600;BME280;51832;48.152;11.530;2023-05-24T10:01:39;95679.13;;;18.27;56.96
56600;BME280;51832;48.152;11.530;2023-05-24T10:06:41;95673.22;;;18.04;57.59
56600;BME280;51832;48.152;11.530;2023-05-24T10:11:42;95676.91;;;17.88;60.21
56600;BME280;51832;48.152;11.530;2023-05-24T10:16:43;95692.16;;;18.18;60.28
56600;BME280;51832;48.152;11.530;2023-05-24T10:21:43;95691.38;;;18.18;60.91
56600;BME280;51832;48.152;11.530;2023-05-24T10:26:45;95688.47;;;18.50;58.23
56600;BME280;51832;48.152;11.530;2023-05-24T10:31:48;95686.06;;;18.38;58.70
56600;BME280;51832;48.152;11.530;2023-05-24T10:36:49;95693.81;;;18.39;57.25
56600;BME280;51832;48.152;11.530;2023-05-24T10:41:50;95686.63;;;18.40;55.50
56600;BME280;51832;48.152;11.530;2023-05-24T10:47:10;95686.06;;;18.38;55.65
56600;BME280;51832;48.152;11.530;2023-05-24T10:52:11;95693.81;;;18.44;55.25
56600;BME280;51832;48.152;11.530;2023-05-24T10:57:12;95688.72;;;18.33;54.88
56600;BME280;51832;48.152;11.530;2023-05-24T11:02:21;95688.78;;;18.63;53.78
56600;BME280;51832;48.152;11.530;2023-05-24T11:07:22;95690.59;;;18.27;53.05
56600;BME280;51832;48.152;11.530;2023-05-24T11:12:29;95689.47;;;18.18;53.33
56600;BME280;51832;48.152;11.530;2023-05-24T11:23:14;95688.44;;;18.24;54.09
56600;BME280;51832;48.152;11.530;2023-05-24T11:28:15;95687.41;;;18.35;53.90
56600;BME280;51832;48.152;11.530;2023-05-24T11:33:17;95684.16;;;18.08;53.82
56600;BME280;51832;48.152;11.530;2023-05-24T11:38:18;95668.75;;;18.30;54.27
56600;BME280;51832;48.152;11.530;2023-05-24T11:43:20;95682.38;;;18.54;53.77
56600;BME280;51832;48.152;11.530;2023-05-24T11:48:21;95687.09;;;18.22;52.82
56600;BME280;51832;48.152;11.530;2023-05-24T11:53:21;95685.81;;;18.39;52.87
56600;BME280;51832;48.152;11.530;2023-05-24T11:58:36;95687.19;;;18.62;51.29
56600;BME280;51832;48.152;11.530;2023-05-24T12:03:40;95686.66;;;18.75;50.58
56600;BME280;51832;48.152;11.530;2023-05-24T12:08:40;95683.72;;;18.97;48.63
56600;BME280;51832;48.152;11.530;2023-05-24T12:13:42;95689.56;;;18.54;49.05
56600;BME280;51832;48.152;11.530;2023-05-24T12:18:42;95694.59;;;18.35;50.49
56600;BME280;51832;48.152;11.530;2023-05-24T12:23:43;95684.22;;;18.43;49.67
56600;BME280;51832;48.152;11.530;2023-05-24T12:28:43;95682.38;;;18.90;49.47
56600;BME280;51832;48.152;11.530;2023-05-24T12:33:43;95689.34;;;18.86;49.99
56600;BME280;51832;48.152;11.530;2023-05-24T12:38:44;95690.09;;;18.61;48.31
56600;BME280;51832;48.152;11.530;2023-05-24T12:43:44;95694.91;;;18.74;47.66
56600;BME280;51832;48.152;11.530;2023-05-24T12:48:45;95688.00;;;18.68;48.23
56600;BME280;51832;48.152;11.530;2023-05-24T12:53:45;95689.84;;;18.57;48.61
56600;BME280;51832;48.152;11.530;2023-05-24T12:58:46;95682.66;;;18.63;47.93
56600;BME280;51832;48.152;11.530;2023-05-24T13:03:46;95675.97;;;18.96;47.66
56600;BME280;51832;48.152;11.530;2023-05-24T13:08:46;95672.72;;;19.14;47.10
56600;BME280;51832;48.152;11.530;2023-05-24T13:13:47;95663.97;;;19.08;47.48
56600;BME280;51832;48.152;11.530;2023-05-24T13:18:49;95664.47;;;19.15;46.76
56600;BME280;51832;48.152;11.530;2023-05-24T13:23:49;95670.38;;;19.12;45.91
56600;BME280;51832;48.152;11.530;2023-05-24T13:28:51;95668.53;;;18.77;46.39
56600;BME280;51832;48.152;11.530;2023-05-24T13:33:51;95674.09;;;19.06;44.55
56600;BME280;51832;48.152;11.530;2023-05-24T13:38:52;95674.63;;;19.08;43.37
56600;BME280;51832;48.152;11.530;2023-05-24T13:43:53;95675.94;;;19.26;42.33
56600;BME280;51832;48.152;11.530;2023-05-24T13:48:56;95671.88;;;19.44;42.37
56600;BME280;51832;48.152;11.530;2023-05-24T13:53:58;95666.25;;;19.45;41.94
56600;BME280;51832;48.152;11.530;2023-05-24T13:58:59;95673.78;;;19.33;42.18
56600;BME280;51832;48.152;11.530;2023-05-24T14:04:02;95682.00;;;19.47;42.33
56600;BME280;51832;48.152;11.530;2023-05-24T14:09:03;95678.09;;;19.09;42.75
56600;BME280;51832;48.152;11.530;2023-05-24T14:14:06;95683.75;;;19.82;41.16
56600;BME280;51832;48.152;11.530;2023-05-24T14:19:06;95685.06;;;19.90;41.60
56600;BME280;51832;48.152;11.530;2023-05-24T14:24:07;95671.59;;;19.45;42.47
56600;BME280;51832;48.152;11.530;2023-05-24T14:29:08;95679.91;;;19.29;43.32
56600;BME280;51832;48.152;11.530;2023-05-24T14:34:09;95675.25;;;19.75;42.20
56600;BME280;51832;48.152;11.530;2023-05-24T14:39:10;95669.75;;;19.51;43.24
56600;BME280;51832;48.152;11.530;2023-05-24T14:44:11;95673.97;;;19.67;42.71
56600;BME280;51832;48.152;11.530;2023-05-24T14:49:11;95667.38;;;20.09;41.39
56600;BME280;51832;48.152;11.530;2023-05-24T14:54:12;95664.94;;;20.56;40.52
56600;BME280;51832;48.152;11.530;2023-05-24T14:59:12;95670.97;;;20.67;39.62
56600;BME280;51832;48.152;11.530;2023-05-24T15:04:13;95666.34;;;21.59;38.03
56600;BME280;51832;48.152;11.530;2023-05-24T15:09:14;95653.13;;;21.92;37.74
56600;BME280;51832;48.152;11.530;2023-05-24T15:14:14;95648.09;;;22.09;36.99
56600;BME280;51832;48.152;11.530;2023-05-24T15:19:14;95654.75;;;22.30;36.98
56600;BME280;51832;48.152;11.530;2023-05-24T15:24:15;95651.50;;;22.52;35.90
56600;BME280;51832;48.152;11.530;2023-05-24T15:29:16;95647.25;;;22.65;35.48
56600;BME280;51832;48.152;11.530;2023-05-24T15:34:16;95639.91;;;22.70;35.46
56600;BME280;51832;48.152;11.530;2023-05-24T15:39:19;95642.59;;;23.63;32.97
56600;BME280;51832;48.152;11.530;2023-05-24T15:49:21;95632.13;;;24.38;31.07
56600;BME280;51832;48.152;11.530;2023-05-24T15:54:22;95640.47;;;24.73;29.87
56600;BME280;51832;48.152;11.530;2023-05-24T15:59:22;95634.16;;;25.00;30.13
56600;BME280;51832;48.152;11.530;2023-05-24T16:04:23;95631.94;;;25.02;30.12
56600;BME280;51832;48.152;11.530;2023-05-24T16:09:23;95626.84;;;25.31;28.43
56600;BME280;51832;48.152;11.530;2023-05-24T16:14:24;95621.19;;;25.90;27.88
56600;BME280;51832;48.152;11.530;2023-05-24T16:19:25;95625.59;;;24.98;29.74
56600;BME280;51832;48.152;11.530;2023-05-24T16:24:26;95624.03;;;25.84;28.64
56600;BME280;51832;48.152;11.530;2023-05-24T16:29:27;95611.41;;;26.71;27.90
56600;BME280;51832;48.152;11.530;2023-05-24T16:34:27;95605.69;;;26.04;28.94
56600;BME280;51832;48.152;11.530;2023-05-24T16:39:28;95614.41;;;26.09;28.68
56600;BME280;51832;48.152;11.530;2023-05-24T16:44:29;95617.41;;;25.99;28.98
56600;BME280;51832;48.152;11.530;2023-05-24T16:49:29;95612.81;;;26.26;28.13
56600;BME280;51832;48.152;11.530;2023-05-24T16:54:30;95608.88;;;25.18;29.69
56600;BME280;51832;48.152;11.530;2023-05-24T16:59:31;95617.19;;;24.77;31.28
56600;BME280;51832;48.152;11.530;2023-05-24T17:04:32;95620.94;;;24.45;32.02
56600;BME280;51832;48.152;11.530;2023-05-24T17:09:32;95618.81;;;24.06;32.52
56600;BME280;51832;48.152;11.530;2023-05-24T17:14:33;95627.63;;;23.43;33.80
56600;BME280;51832;48.152;11.530;2023-05-24T17:19:33;95617.31;;;23.23;34.57
56600;BME280;51832;48.152;11.530;2023-05-24T17:24:33;95625.63;;;23.08;34.84
56600;BME280;51832;48.152;11.530;2023-05-24T17:29:34;95630.84;;;22.85;35.63
56600;BME280;51832;48.152;11.530;2023-05-24T17:34:35;95632.31;;;22.59;36.08
56600;BME280;51832;48.152;11.530;2023-05-24T17:39:35;95640.75;;;23.17;43.72
56600;BME280;51832;48.152;11.530;2023-05-24T17:44:37;95635.84;;;22.92;41.13
56600;BME280;51832;48.152;11.530;2023-05-24T17:49:38;95639.88;;;22.57;38.45
56600;BME280;51832;48.152;11.530;2023-05-24T17:54:39;95643.19;;;22.67;38.90
56600;BME280;51832;48.152;11.530;2023-05-24T17:59:39;95630.03;;;22.52;40.23
56600;BME280;51832;48.152;11.530;2023-05-24T18:04:40;95637.34;;;22.47;39.65
56600;BME280;51832;48.152;11.530;2023-05-24T18:09:40;95643.09;;;22.40;40.41
56600;BME280;51832;48.152;11.530;2023-05-24T18:14:40;95642.06;;;22.36;38.46
56600;BME280;51832;48.152;11.530;2023-05-24T18:19:43;95652.22;;;22.39;39.04
56600;BME280;51832;48.152;11.530;2023-05-24T18:24:43;95661.69;;;21.70;39.14
56600;BME280;51832;48.152;11.530;2023-05-24T18:29:44;95665.63;;;21.54;37.66
56600;BME280;51832;48.152;11.530;2023-05-24T18:34:44;95682.53;;;20.91;38.43
56600;BME280;51832;48.152;11.530;2023-05-24T18:39:44;95684.59;;;20.71;39.75
56600;BME280;51832;48.152;11.530;2023-05-24T18:44:45;95692.16;;;20.64;39.32
56600;BME280;51832;48.152;11.530;2023-05-24T18:49:45;95697.09;;;20.41;41.79
56600;BME280;51832;48.152;11.530;2023-05-24T18:54:46;95698.41;;;20.49;40.58
56600;BME280;51832;48.152;11.530;2023-05-24T18:59:46;95697.97;;;20.27;40.70
56600;BME280;51832;48.152;11.530;2023-05-24T19:04:47;95706.16;;;19.91;42.40
56600;BME280;51832;48.152;11.530;2023-05-24T19:09:47;95702.38;;;19.97;43.29
56600;BME280;51832;48.152;11.530;2023-05-24T19:14:48;95712.16;;;19.47;47.41
56600;BME280;51832;48.152;11.530;2023-05-24T19:19:48;95711.13;;;19.54;47.01
56600;BME280;51832;48.152;11.530;2023-05-24T19:24:48;95718.59;;;19.31;48.38
56600;BME280;51832;48.152;11.530;2023-05-24T19:29:49;95721.03;;;18.92;49.57
56600;BME280;51832;48.152;11.530;2023-05-24T19:34:49;95719.69;;;18.90;50.10
56600;BME280;51832;48.152;11.530;2023-05-24T19:39:51;95728.25;;;18.97;49.40
56600;BME280;51832;48.152;11.530;2023-05-24T19:44:51;95748.25;;;18.84;50.08
56600;BME280;51832;48.152;11.530;2023-05-24T19:49:51;95746.56;;;18.47;51.31
56600;BME280;51832;48.152;11.530;2023-05-24T19:54:52;95747.72;;;18.97;49.08
56600;BME280;51832;48.152;11.530;2023-05-24T19:59:52;95757.28;;;19.13;48.71
56600;BME280;51832;48.152;11.530;2023-05-24T20:04:53;95757.06;;;19.10;49.18
56600;BME280;51832;48.152;11.530;2023-05-24T20:09:53;95750.91;;;18.89;49.98
56600;BME280;51832;48.152;11.530;2023-05-24T20:14:54;95752.75;;;18.68;50.55
56600;BME280;51832;48.152;11.530;2023-05-24T20:19:54;95746.84;;;18.51;51.05
56600;BME280;51832;48.152;11.530;2023-05-24T20:24:55;95748.47;;;18.62;50.65
56600;BME280;51832;48.152;11.530;2023-05-24T20:29:55;95739.38;;;18.53;51.17
56600;BME280;51832;48.152;11.530;2023-05-24T20:34:56;95738.31;;;18.44;51.17
56600;BME280;51832;48.152;11.530;2023-05-24T20:39:56;95730.53;;;18.22;51.58
56600;BME280;51832;48.152;11.530;2023-05-24T20:44:56;95731.88;;;18.30;51.91
56600;BME280;51832;48.152;11.530;2023-05-24T20:49:57;95731.06;;;18.24;50.87
56600;BME280;51832;48.152;11.530;2023-05-24T20:54:57;95736.09;;;18.21;51.65
56600;BME280;51832;48.152;11.530;2023-05-24T20:59:58;95731.69;;;17.79;52.93
56600;BME280;51832;48.152;11.530;2023-05-24T21:04:58;95735.97;;;17.80;52.69
56600;BME280;51832;48.152;11.530;2023-05-24T21:09:58;95743.44;;;17.83;52.69
56600;BME280;51832;48.152;11.530;2023-05-24T21:14:59;95738.84;;;18.41;51.18
56600;BME280;51832;48.152;11.530;2023-05-24T21:19:59;95750.31;;;18.52;49.70
56600;BME280;51832;48.152;11.530;2023-05-24T21:25:00;95754.53;;;18.37;50.05
56600;BME280;51832;48.152;11.530;2023-05-24T21:30:00;95747.09;;;18.50;50.16
56600;BME280;51832;48.152;11.530;2023-05-24T21:35:02;95751.44;;;18.76;49.48
56600;BME280;51832;48.152;11.530;2023-05-24T21:40:03;95745.16;;;18.15;50.35
56600;BME280;51832;48.152;11.530;2023-05-24T21:45:04;95755.28;;;18.23;50.15
56600;BME280;51832;48.152;11.530;2023-05-24T21:50:05;95747.25;;;18.02;50.56
56600;BME280;51832;48.152;11.530;2023-05-24T21:55:06;95758.91;;;17.91;50.92
56600;BME280;51832;48.152;11.530;2023-05-24T22:00:07;95757.59;;;17.89;51.58
56600;BME280;51832;48.152;11.530;2023-05-24T22:05:08;95758.41;;;18.04;50.85
56600;BME280;51832;48.152;11.530;2023-05-24T22:10:08;95758.06;;;17.75;51.66
56600;BME280;51832;48.152;11.530;2023-05-24T22:15:10;95763.59;;;17.69;50.75
56600;BME280;51832;48.152;11.530;2023-05-24T22:20:11;95751.13;;;17.80;50.25
56600;BME280;51832;48.152;11.530;2023-05-24T22:25:11;95764.44;;;17.74;50.84
56600;BME280;51832;48.152;11.530;2023-05-24T22:30:16;95762.50;;;17.65;50.55
56600;BME280;51832;48.152;11.530;2023-05-24T22:35:18;95761.75;;;17.69;50.51
56600;BME280;51832;48.152;11.530;2023-05-24T22:40:18;95769.03;;;17.47;49.89
56600;BME280;51832;48.152;11.530;2023-05-24T22:45:18;95765.94;;;18.23;48.25
56600;BME280;51832;48.152;11.530;2023-05-24T22:50:19;95759.19;;;17.95;48.50
56600;BME280;51832;48.152;11.530;2023-05-24T22:55:19;95753.34;;;17.98;48.05
56600;BME280;51832;48.152;11.530;2023-05-24T23:00:20;95743.16;;;17.80;47.31
56600;BME280;51832;48.152;11.530;2023-05-24T23:05:20;95748.94;;;17.66;46.63
56600;BME280;51832;48.152;11.530;2023-05-24T23:10:21;95748.91;;;17.19;47.37
56600;BME280;51832;48.152;11.530;2023-05-24T23:15:21;95747.97;;;17.40;46.51
56600;BME280;51832;48.152;11.530;2023-05-24T23:20:22;95746.97;;;17.47;46.00
56600;BME280;51832;48.152;11.530;2023-05-24T23:25:22;95742.81;;;17.24;46.92
56600;BME280;51832;48.152;11.530;2023-05-24T23:30:22;95731.84;;;17.15;46.79
56600;BME280;51832;48.152;11.530;2023-05-24T23:35:23;95737.75;;;17.22;46.68
56600;BME280;51832;48.152;11.530;2023-05-24T23:40:23;95739.31;;;17.18;46.98
56600;BME280;51832;48.152;11.530;2023-05-24T23:45:26;95744.59;;;17.55;46.05
56600;BME280;51832;48.152;11.530;2023-05-24T23:50:26;95748.44;;;17.69;45.87
56600;BME280;51832;48.152;11.530;2023-05-24T23:55:27;95741.47;;;17.21;46.84
